Time;durP1;ratioP1;P1;durP2;ratioP2;P2;SDS_P1;SDS_P2;PMS_P1;PMS_P2;Temp;Humidity;BMP_temperature;BMP_pressure;BME280_temperature;BME280_humidity;BME280_pressure;Samples;Min_cycle;Max_cycle;Signal;HPM_P1;HPM_P2
2022/01/07 00:00:48;;;;;;;9.80;1.60;;;;;;;10.38;100.00;102278.94;5025399;28;20947;-91
2022/01/07 00:03:25;;;;;;;13.40;2.00;;;;;;;10.49;100.00;102279.69;5025393;28;20805;-91
2022/01/07 00:05:59;;;;;;;11.73;2.50;;;;;;;10.53;100.00;102272.91;5026001;28;20466;-91
2022/01/07 00:08:30;;;;;;;6.27;2.17;;;;;;;10.60;100.00;102276.72;5029423;28;20953;-90
2022/01/07 00:11:00;;;;;;;7.13;1.77;;;;;;;10.56;100.00;102269.88;5057459;28;20433;-91
2022/01/07 00:13:28;;;;;;;7.03;1.63;;;;;;;10.60;100.00;102265.78;5025189;28;20954;-90
2022/01/07 00:15:58;;;;;;;5.40;1.30;;;;;;;10.65;100.00;102275.25;5024923;28;20452;-90
2022/01/07 00:18:31;;;;;;;8.83;2.20;;;;;;;10.62;100.00;102263.75;5036860;28;20541;-91
2022/01/07 00:21:00;;;;;;;7.63;2.03;;;;;;;10.70;100.00;102278.38;5040472;28;20519;-91
2022/01/07 00:23:29;;;;;;;8.73;1.70;;;;;;;10.66;100.00;102265.16;5067879;28;20453;-91
2022/01/07 00:26:10;;;;;;;9.63;3.43;;;;;;;10.75;100.00;102285.25;5044015;28;20445;-90
2022/01/07 00:28:46;;;;;;;19.87;2.27;;;;;;;10.79;100.00;102273.81;5061880;28;20999;-91
2022/01/07 00:31:17;;;;;;;7.77;1.80;;;;;;;10.76;100.00;102271.44;5056484;28;20442;-91
2022/01/07 00:33:47;;;;;;;6.17;1.60;;;;;;;10.79;100.00;102271.09;5042462;28;20441;-91
2022/01/07 00:36:15;;;;;;;8.60;1.80;;;;;;;10.79;100.00;102262.88;5028971;28;20473;-88
2022/01/07 00:38:43;;;;;;;7.57;2.20;;;;;;;10.78;100.00;102266.63;5023724;28;20434;-93
2022/01/07 00:41:34;;;;;;;8.93;2.00;;;;;;;10.79;100.00;102268.34;5032859;28;20429;-88
2022/01/07 00:44:03;;;;;;;12.73;2.73;;;;;;;10.77;100.00;102267.69;5055126;28;20448;-87
2022/01/07 00:46:31;;;;;;;13.70;2.43;;;;;;;10.62;100.00;102253.69;5055217;28;20442;-87
2022/01/07 00:48:59;;;;;;;8.63;2.23;;;;;;;10.67;100.00;102256.81;5055939;28;20426;-87
2022/01/07 00:51:27;;;;;;;9.47;2.63;;;;;;;10.64;100.00;102251.66;5039206;28;20449;-87
2022/01/07 00:53:55;;;;;;;8.83;1.93;;;;;;;10.65;100.00;102255.25;5056348;28;20427;-87
2022/01/07 00:56:24;;;;;;;7.40;2.00;;;;;;;10.53;100.00;102245.56;5039424;28;20980;-87
2022/01/07 00:58:52;;;;;;;6.43;2.00;;;;;;;10.63;100.00;102255.41;5055511;28;20449;-87
2022/01/07 01:01:19;;;;;;;11.03;2.23;;;;;;;10.61;100.00;102256.56;5022514;28;20438;-88
2022/01/07 01:03:47;;;;;;;6.23;2.30;;;;;;;10.59;100.00;102254.00;5041861;28;20445;-87
2022/01/07 01:06:15;;;;;;;7.17;1.50;;;;;;;10.56;100.00;102257.06;5093524;28;20436;-88
2022/01/07 01:08:43;;;;;;;9.77;1.87;;;;;;;10.52;100.00;102254.78;5075645;28;20446;-87
2022/01/07 01:11:11;;;;;;;8.33;1.90;;;;;;;10.42;100.00;102245.78;5059044;28;21012;-87
2022/01/07 01:13:39;;;;;;;8.13;2.33;;;;;;;10.49;100.00;102266.03;5075450;28;20481;-87
2022/01/07 01:16:08;;;;;;;14.87;2.50;;;;;;;10.43;100.00;102258.44;5075673;28;20433;-87
2022/01/07 01:18:36;;;;;;;14.53;1.93;;;;;;;10.42;100.00;102256.72;5074967;28;20448;-87
2022/01/07 01:21:03;;;;;;;12.70;2.80;;;;;;;10.32;100.00;102244.00;5042734;28;20488;-88
2022/01/07 01:23:32;;;;;;;14.10;2.50;;;;;;;10.36;100.00;102259.09;5074640;28;20441;-87
2022/01/07 01:26:00;;;;;;;9.73;1.70;;;;;;;10.35;100.00;102262.84;5093147;28;20465;-87
2022/01/07 01:28:27;;;;;;;6.97;2.13;;;;;;;10.33;100.00;102248.47;5095560;28;20540;-88
2022/01/07 01:30:55;;;;;;;9.30;2.70;;;;;;;10.35;100.00;102260.09;5113560;28;20428;-87
2022/01/07 01:33:23;;;;;;;15.40;2.83;;;;;;;10.33;100.00;102256.66;5095138;28;20949;-88
2022/01/07 01:35:53;;;;;;;7.33;1.73;;;;;;;10.29;100.00;102260.72;5062550;28;20471;-88
2022/01/07 01:38:20;;;;;;;9.03;2.53;;;;;;;10.30;100.00;102262.44;5095251;28;20933;-87
2022/01/07 01:40:48;;;;;;;6.80;1.77;;;;;;;10.29;100.00;102263.44;5073453;28;20835;-87
2022/01/07 01:43:17;;;;;;;6.83;2.10;;;;;;;10.27;100.00;102259.16;5042592;28;20441;-88
2022/01/07 01:45:44;;;;;;;10.97;2.53;;;;;;;10.29;100.00;102262.59;5075104;28;20481;-88
2022/01/07 01:48:12;;;;;;;13.27;2.20;;;;;;;10.32;100.00;102267.75;5067116;28;20859;-88
2022/01/07 01:50:40;;;;;;;7.70;2.13;;;;;;;10.32;100.00;102271.34;5075000;28;20440;-87
2022/01/07 01:53:09;;;;;;;10.60;2.00;;;;;;;10.34;100.00;102261.13;5042809;28;20572;-88
2022/01/07 01:55:37;;;;;;;10.13;2.20;;;;;;;10.36;100.00;102264.56;5093054;28;20811;-87
2022/01/07 01:58:05;;;;;;;12.77;2.57;;;;;;;10.29;100.00;102238.84;5074986;28;20943;-87
2022/01/07 02:00:34;;;;;;;10.63;2.37;;;;;;;10.37;100.00;102255.34;5058698;28;20426;-87
2022/01/07 02:03:02;;;;;;;15.00;3.83;;;;;;;10.41;100.00;102255.88;5062176;28;20452;-87
2022/01/07 02:05:30;;;;;;;11.10;2.33;;;;;;;10.36;100.00;102247.31;5078409;28;20797;-88
2022/01/07 02:07:57;;;;;;;9.50;2.30;;;;;;;10.37;100.00;102247.16;5078033;28;20527;-87
2022/01/07 02:10:25;;;;;;;11.50;1.77;;;;;;;10.41;100.00;102255.88;5078199;28;20472;-87
2022/01/07 02:12:53;;;;;;;15.83;2.97;;;;;;;10.48;100.00;102250.66;5077538;28;20493;-88
2022/01/07 02:15:23;;;;;;;8.50;1.70;;;;;;;10.52;100.00;102252.06;5061270;28;20767;-87
2022/01/07 02:17:53;;;;;;;19.13;2.20;;;;;;;10.53;100.00;102253.78;5095509;28;20861;-87
2022/01/07 02:20:22;;;;;;;13.30;2.33;;;;;;;10.55;100.00;102246.28;5078858;28;20439;-88
2022/01/07 02:22:50;;;;;;;14.67;2.60;;;;;;;10.57;100.00;102249.72;5078313;28;20448;-88
2022/01/07 02:25:20;;;;;;;12.00;2.67;;;;;;;10.68;100.00;102257.66;5074723;28;20469;-89
2022/01/07 02:27:48;;;;;;;14.37;2.93;;;;;;;10.71;100.00;102243.69;5043122;28;20790;-88
2022/01/07 02:30:29;;;;;;;11.43;3.07;;;;;;;10.72;100.00;102246.28;5042022;28;20437;-88
2022/01/07 02:32:57;;;;;;;14.23;2.20;;;;;;;10.77;100.00;102248.53;5058747;28;20866;-88
2022/01/07 02:35:27;;;;;;;14.10;2.60;;;;;;;10.85;100.00;102258.66;5043035;28;20516;-88
2022/01/07 02:37:56;;;;;;;21.60;3.00;;;;;;;10.79;100.00;102243.75;5068005;28;20801;-89
2022/01/07 02:40:24;;;;;;;12.83;1.70;;;;;;;10.88;100.00;102264.69;5098376;28;20451;-88
2022/01/07 02:42:51;;;;;;;18.70;1.90;;;;;;;10.84;100.00;102252.34;5081970;28;20458;-89
2022/01/07 02:45:19;;;;;;;15.57;2.33;;;;;;;10.88;100.00;102266.56;5099007;28;20961;-88
2022/01/07 02:47:53;;;;;;;9.37;2.10;;;;;;;10.93;100.00;102262.34;5065609;28;20946;-88
2022/01/07 02:50:24;;;;;;;16.30;3.27;;;;;;;10.95;100.00;102263.03;5079312;28;20441;-89
2022/01/07 02:52:52;;;;;;;12.80;1.83;;;;;;;10.95;100.00;102268.50;5078067;28;20850;-89
2022/01/07 02:55:20;;;;;;;22.27;2.40;;;;;;;10.88;100.00;102253.75;5061649;28;20437;-88
2022/01/07 02:57:48;;;;;;;10.20;2.30;;;;;;;10.86;100.00;102250.31;5044873;28;20795;-88
2022/01/07 03:00:17;;;;;;;11.43;2.27;;;;;;;10.94;100.00;102264.06;5061782;28;20445;-88
2022/01/07 03:02:46;;;;;;;7.20;2.10;;;;;;;10.89;100.00;102252.72;5058544;28;20938;-88
2022/01/07 03:05:16;;;;;;;15.87;2.77;;;;;;;10.96;100.00;102256.56;5061908;28;20460;-89
2022/01/07 03:07:47;;;;;;;17.27;2.90;;;;;;;10.88;100.00;102242.81;5077703;28;20441;-88
2022/01/07 03:10:16;;;;;;;11.33;1.90;;;;;;;10.96;100.00;102262.03;5061808;28;20442;-87
2022/01/07 03:12:45;;;;;;;12.40;2.30;;;;;;;11.00;100.00;102263.41;5061946;28;20512;-88
2022/01/07 03:15:14;;;;;;;8.37;2.07;;;;;;;10.98;100.00;102249.03;5061265;28;20494;-88
2022/01/07 03:17:42;;;;;;;9.43;2.30;;;;;;;11.02;100.00;102244.09;5061367;28;20442;-88
2022/01/07 03:20:16;;;;;;;7.47;2.20;;;;;;;11.02;100.00;102244.94;5077584;28;20528;-88
2022/01/07 03:22:45;;;;;;;21.53;3.20;;;;;;;11.06;100.00;102246.34;5078391;28;20531;-88
2022/01/07 03:25:13;;;;;;;11.50;2.50;;;;;;;11.01;100.00;102245.97;5064148;28;20436;-88
2022/01/07 03:27:41;;;;;;;7.23;2.00;;;;;;;11.04;100.00;102242.06;5064267;28;20447;-88
2022/01/07 03:30:09;;;;;;;8.17;1.50;;;;;;;11.08;100.00;102243.47;5097206;28;20440;-89
2022/01/07 03:32:37;;;;;;;8.90;1.93;;;;;;;11.06;100.00;102240.88;5064783;28;20488;-89
2022/01/07 03:35:06;;;;;;;24.10;2.30;;;;;;;11.09;100.00;102245.19;5063154;28;21015;-88
2022/01/07 03:37:34;;;;;;;13.13;2.27;;;;;;;11.08;100.00;102241.59;5060811;28;20430;-89
2022/01/07 03:40:05;;;;;;;9.60;2.40;;;;;;;11.08;100.00;102229.78;5077258;28;20520;-89
2022/01/07 03:42:33;;;;;;;10.33;1.70;;;;;;;11.12;100.00;102233.06;5061151;28;20436;-88
2022/01/07 03:45:00;;;;;;;12.47;2.10;;;;;;;11.14;100.00;102241.97;5060311;28;20433;-88
2022/01/07 03:47:30;;;;;;;13.27;1.90;;;;;;;11.15;100.00;102235.47;5064345;28;20448;-89
2022/01/07 03:49:57;;;;;;;8.40;2.17;;;;;;;11.16;100.00;102239.94;5097313;28;20524;-89
2022/01/07 03:52:25;;;;;;;10.03;2.80;;;;;;;11.10;100.00;102221.41;5080458;28;20563;-88
2022/01/07 03:54:53;;;;;;;8.77;2.10;;;;;;;11.16;100.00;102223.53;5080388;28;20948;-89
2022/01/07 03:57:20;;;;;;;11.27;2.20;;;;;;;11.14;100.00;102225.56;5063711;28;20444;-88
2022/01/07 03:59:50;;;;;;;10.63;1.97;;;;;;;11.15;100.00;102224.53;5095563;28;20436;-89
2022/01/07 04:02:19;;;;;;;12.70;2.50;;;;;;;11.04;100.00;102215.56;5065081;28;20945;-89
2022/01/07 04:04:47;;;;;;;8.70;2.00;;;;;;;11.05;100.00;102222.75;5080320;28;21007;-88
2022/01/07 04:07:14;;;;;;;10.13;2.27;;;;;;;11.11;100.00;102231.34;5063890;28;20472;-89
2022/01/07 04:09:42;;;;;;;9.00;1.60;;;;;;;11.08;100.00;102222.44;5057915;28;20605;-89
2022/01/07 04:12:10;;;;;;;9.20;1.97;;;;;;;11.14;100.00;102236.50;5076107;28;20449;-88
2022/01/07 04:14:38;;;;;;;12.33;2.50;;;;;;;11.14;100.00;102228.28;5057352;28;20865;-89
2022/01/07 04:17:07;;;;;;;11.37;1.67;;;;;;;11.18;100.00;102232.41;5063847;28;20452;-89
2022/01/07 04:19:35;;;;;;;10.97;2.10;;;;;;;11.14;100.00;102225.56;5080147;28;20448;-90
2022/01/07 04:22:03;;;;;;;8.50;1.73;;;;;;;11.16;100.00;102229.00;5075813;28;20479;-89
2022/01/07 04:24:33;;;;;;;10.23;2.40;;;;;;;11.16;100.00;102223.53;5059788;28;20490;-89
2022/01/07 04:27:00;;;;;;;12.67;1.93;;;;;;;11.18;100.00;102237.88;5076254;28;20437;-88
2022/01/07 04:29:28;;;;;;;10.10;1.80;;;;;;;11.20;100.00;102236.69;5059776;28;20441;-88
2022/01/07 04:31:56;;;;;;;10.87;2.10;;;;;;;11.18;100.00;102237.88;5043600;28;20442;-89
2022/01/07 04:34:23;;;;;;;10.10;2.00;;;;;;;11.22;100.00;102252.94;5052077;28;20520;-88
2022/01/07 04:36:51;;;;;;;5.63;1.57;;;;;;;11.16;100.00;102248.16;5043391;28;20528;-89
2022/01/07 04:39:19;;;;;;;11.80;3.10;;;;;;;11.16;100.00;102239.94;5059530;28;20437;-88
2022/01/07 04:41:47;;;;;;;14.97;1.97;;;;;;;11.19;100.00;102253.28;5043309;28;20982;-89
2022/01/07 04:44:15;;;;;;;14.60;2.80;;;;;;;11.21;100.00;102251.22;5042952;28;20479;-89
2022/01/07 04:46:43;;;;;;;16.37;2.20;;;;;;;11.21;100.00;102249.34;5043615;28;20433;-89
2022/01/07 04:49:11;;;;;;;12.40;2.20;;;;;;;11.18;100.00;102249.69;5043311;28;20456;-89
2022/01/07 04:51:38;;;;;;;10.47;1.90;;;;;;;11.18;100.00;102243.34;5042631;28;20923;-90
2022/01/07 04:54:06;;;;;;;9.07;2.83;;;;;;;11.18;100.00;102257.03;5042908;28;20503;-89
2022/01/07 04:56:34;;;;;;;9.17;1.87;;;;;;;11.13;100.00;102248.47;5043344;28;20433;-89
2022/01/07 04:59:04;;;;;;;14.90;2.90;;;;;;;11.21;100.00;102260.31;5052187;28;20942;-88
2022/01/07 05:01:33;;;;;;;11.73;2.60;;;;;;;11.26;100.00;102273.50;5092679;28;20476;-89
2022/01/07 05:04:00;;;;;;;14.77;2.00;;;;;;;11.21;100.00;102265.78;5092205;28;20441;-89
2022/01/07 05:08:56;;;;;;;13.63;2.13;;;;;;;11.28;100.00;102258.66;5059496;28;20433;-89
2022/01/07 05:11:24;;;;;;;10.17;3.07;;;;;;;11.26;100.00;102262.56;5058683;28;20522;-89
2022/01/07 05:13:51;;;;;;;12.97;2.40;;;;;;;11.27;100.00;102272.50;5059095;28;20495;-88
2022/01/07 05:16:19;;;;;;;6.53;2.27;;;;;;;11.27;100.00;102272.50;5042899;28;20437;-89
2022/01/07 05:18:47;;;;;;;14.90;2.43;;;;;;;11.28;100.00;102271.47;5042548;28;20448;-88
2022/01/07 05:21:14;;;;;;;12.33;2.20;;;;;;;11.28;100.00;102272.34;5075781;28;20468;-88
2022/01/07 05:23:42;;;;;;;10.13;1.60;;;;;;;11.28;100.00;102282.44;5079309;28;20428;-89
2022/01/07 05:26:10;;;;;;;13.47;2.50;;;;;;;11.24;100.00;102268.19;5062825;28;20432;-89
2022/01/07 05:28:37;;;;;;;8.63;2.47;;;;;;;11.25;100.00;102277.25;5062321;28;20439;-88
2022/01/07 05:31:06;;;;;;;8.10;2.03;;;;;;;11.28;100.00;102287.91;5079071;28;20798;-89
2022/01/07 05:33:33;;;;;;;7.93;2.00;;;;;;;11.21;100.00;102275.88;5112311;28;20476;-90
2022/01/07 05:36:01;;;;;;;12.27;2.33;;;;;;;11.23;100.00;102293.84;5042569;28;20426;-89
2022/01/07 05:38:29;;;;;;;16.30;2.10;;;;;;;11.10;100.00;102270.66;5042199;28;20784;-88
2022/01/07 05:40:56;;;;;;;11.60;2.00;;;;;;;11.21;100.00;102308.69;5042795;28;20429;-89
2022/01/07 05:43:24;;;;;;;8.73;1.40;;;;;;;11.18;100.00;102303.53;5042494;28;20444;-89
2022/01/07 05:45:51;;;;;;;11.40;1.77;;;;;;;11.15;100.00;102310.22;5079860;28;20443;-89
2022/01/07 05:48:21;;;;;;;10.33;2.13;;;;;;;11.13;100.00;102300.44;5044890;28;20445;-89
2022/01/07 05:50:49;;;;;;;9.17;1.90;;;;;;;11.13;100.00;102311.41;5042468;28;20441;-89
2022/01/07 05:53:17;;;;;;;10.37;1.93;;;;;;;11.11;100.00;102313.44;5057453;28;20825;-89
2022/01/07 05:55:45;;;;;;;9.90;1.90;;;;;;;11.10;100.00;102322.66;5059014;28;20849;-89
2022/01/07 05:58:13;;;;;;;8.73;2.90;;;;;;;11.06;100.00;102316.63;5042401;28;20791;-89
2022/01/07 06:00:40;;;;;;;10.50;2.83;;;;;;;10.98;100.00;102303.72;5058632;28;20436;-89
2022/01/07 06:03:09;;;;;;;12.97;1.77;;;;;;;10.96;100.00;102310.41;5044277;28;21094;-89
2022/01/07 06:05:37;;;;;;;11.33;2.80;;;;;;;10.86;100.00;102315.94;5042303;28;20434;-90
2022/01/07 06:08:04;;;;;;;13.53;2.20;;;;;;;10.89;100.00;102325.72;5075366;28;20524;-90
2022/01/07 06:10:32;;;;;;;9.20;2.07;;;;;;;10.83;100.00;102320.88;5061596;28;20434;-90
2022/01/07 06:13:01;;;;;;;8.63;2.47;;;;;;;10.75;100.00;102327.13;5046344;28;20437;-91
2022/01/07 06:15:29;;;;;;;6.07;1.70;;;;;;;10.75;100.00;102338.06;5099737;28;20493;-89
2022/01/07 06:17:59;;;;;;;35.73;12.53;;;;;;;10.63;100.00;102325.63;5082624;28;20436;-90
2022/01/07 06:20:27;;;;;;;23.27;8.80;;;;;;;10.56;100.00;102328.16;5065947;28;20934;-88
2022/01/07 06:22:55;;;;;;;24.97;7.73;;;;;;;10.54;100.00;102345.72;5065820;28;20443;-89
2022/01/07 06:25:23;;;;;;;14.60;4.90;;;;;;;10.46;100.00;102341.00;5062180;28;20802;-89
2022/01/07 06:27:50;;;;;;;14.53;3.50;;;;;;;10.36;100.00;102349.28;5062137;28;20445;-89
2022/01/07 06:30:18;;;;;;;12.77;3.30;;;;;;;10.33;100.00;102352.31;5078753;28;20528;-89
2022/01/07 06:32:46;;;;;;;22.17;5.80;;;;;;;10.15;100.00;102334.97;5051137;28;20494;-90
2022/01/07 06:35:13;;;;;;;17.33;4.20;;;;;;;10.17;100.00;102351.22;5096067;28;20862;-90
2022/01/07 06:37:41;;;;;;;7.60;3.20;;;;;;;10.10;100.00;102356.44;5078302;28;20441;-89
2022/01/07 06:40:09;;;;;;;16.80;2.60;;;;;;;10.02;100.00;102353.56;5061808;28;20480;-90
2022/01/07 06:42:36;;;;;;;11.73;3.13;;;;;;;9.95;100.00;102360.66;5061672;28;20452;-89
2022/01/07 06:45:05;;;;;;;5.87;1.90;;;;;;;9.86;100.00;102359.69;5045761;28;20463;-90
2022/01/07 06:47:33;;;;;;;11.70;1.60;;;;;;;9.82;100.00;102373.78;5062533;28;20530;-89
2022/01/07 06:50:01;;;;;;;9.43;2.10;;;;;;;9.77;100.00;102376.97;5078725;28;20430;-89
2022/01/07 06:52:35;;;;;;;8.90;1.90;;;;;;;9.67;100.00;102376.13;5046435;28;20433;-89
2022/01/07 06:55:03;;;;;;;14.30;3.47;;;;;;;9.61;100.00;102374.88;5075308;28;20834;-89
2022/01/07 06:57:31;;;;;;;9.10;1.83;;;;;;;9.56;100.00;102379.03;5061656;28;20445;-89
2022/01/07 06:59:58;;;;;;;2.90;1.50;;;;;;;9.40;100.00;102368.75;5061317;28;20506;-90
2022/01/07 07:02:26;;;;;;;9.87;1.90;;;;;;;9.46;100.00;102389.97;5072354;28;20449;-90
2022/01/07 07:04:54;;;;;;;11.30;2.40;;;;;;;9.42;100.00;102394.03;5061340;28;20536;-90
2022/01/07 07:07:21;;;;;;;8.70;2.30;;;;;;;9.36;100.00;102394.59;5061251;28;20551;-89
2022/01/07 07:09:49;;;;;;;6.47;1.80;;;;;;;9.27;100.00;102392.72;5071888;28;20494;-90
2022/01/07 07:12:19;;;;;;;8.23;2.10;;;;;;;9.25;100.00;102400.19;5062276;28;20879;-90
2022/01/07 07:14:46;;;;;;;11.53;1.93;;;;;;;9.22;100.00;102393.19;5081266;28;20538;-89
2022/01/07 07:17:14;;;;;;;6.20;1.90;;;;;;;9.24;100.00;102401.19;5081124;28;20440;-88
2022/01/07 07:19:42;;;;;;;8.90;1.90;;;;;;;9.21;100.00;102401.50;5081169;28;20442;-89
2022/01/07 07:22:11;;;;;;;5.57;2.20;;;;;;;9.15;100.00;102407.53;5078676;28;20805;-89
2022/01/07 07:24:38;;;;;;;7.23;1.73;;;;;;;9.09;100.00;102402.63;5097783;28;20498;-89
2022/01/07 07:27:07;;;;;;;11.60;3.20;;;;;;;9.05;100.00;102402.03;5053047;28;21015;-90
2022/01/07 07:29:37;;;;;;;10.90;2.00;;;;;;;9.06;100.00;102408.38;5045036;28;20465;-90
2022/01/07 07:32:10;;;;;;;4.73;1.67;;;;;;;8.96;100.00;102395.59;5061588;28;20482;-89
2022/01/07 07:36:26;;;;;;;10.00;2.60;;;;;;;9.08;100.00;102414.53;5076840;28;20479;-89
2022/01/07 07:37:33;;;;;;;10.17;2.20;;;;;;;9.00;100.00;102402.50;5083904;28;20435;-89
2022/01/07 07:40:01;;;;;;;6.43;1.77;;;;;;;9.03;100.00;102419.59;5064868;28;20434;-89
2022/01/07 07:42:29;;;;;;;10.57;2.00;;;;;;;8.91;100.00;102399.75;5079023;28;20519;-89
2022/01/07 07:44:57;;;;;;;5.23;1.43;;;;;;;8.97;100.00;102415.56;5077059;28;20495;-89
2022/01/07 07:47:28;;;;;;;11.03;2.10;;;;;;;9.00;100.00;102424.31;5044200;28;20454;-89
2022/01/07 07:49:57;;;;;;;6.50;1.63;;;;;;;9.03;100.00;102425.91;5077179;28;20433;-89
2022/01/07 07:52:25;;;;;;;5.50;1.30;;;;;;;9.02;100.00;102417.88;5044496;28;20494;-89
2022/01/07 07:54:53;;;;;;;9.37;1.60;;;;;;;9.05;100.00;102415.69;5083140;28;20479;-89
2022/01/07 07:57:21;;;;;;;7.57;1.67;;;;;;;9.10;100.00;102418.00;5063839;28;20440;-89
2022/01/07 07:59:49;;;;;;;4.07;1.47;;;;;;;9.26;100.00;102426.47;5063507;28;20440;-88
2022/01/07 08:02:17;;;;;;;9.33;1.70;;;;;;;9.29;100.00;102426.19;5114972;28;20485;-88
2022/01/07 08:04:45;;;;;;;8.50;2.13;;;;;;;9.35;100.00;102431.06;5063571;28;20447;-88
2022/01/07 08:07:16;;;;;;;10.23;1.53;;;;;;;9.32;100.00;102420.44;5080500;28;20446;-88
2022/01/07 08:09:44;;;;;;;9.20;1.90;;;;;;;9.44;100.00;102434.78;5049312;28;20498;-88
2022/01/07 08:12:28;;;;;;;7.53;1.30;;;;;;;9.45;100.00;102421.00;5060625;28;20833;-89
2022/01/07 08:17:43;;;;;;;9.20;1.57;;;;;;;9.81;100.00;102430.28;5085307;28;20455;-89
2022/01/07 08:20:11;;;;;;;10.43;2.60;;;;;;;9.91;100.00;102439.31;5114740;28;20531;-90
2022/01/07 08:22:39;;;;;;;12.63;4.67;;;;;;;10.00;100.00;102434.84;5079136;28;20468;-89
2022/01/07 08:25:07;;;;;;;6.23;3.83;;;;;;;10.05;100.00;102429.75;5043371;28;20441;-89
2022/01/07 08:27:35;;;;;;;6.63;2.07;;;;;;;10.12;100.00;102436.38;5043602;28;20439;-89
2022/01/07 08:30:22;;;;;;;11.23;2.13;;;;;;;10.14;100.00;102430.75;5043951;28;20440;-89
2022/01/07 08:35:38;;;;;;;4.23;1.80;;;;;;;10.21;100.00;102434.63;5078888;28;20472;-89
2022/01/07 08:38:06;;;;;;;7.47;1.73;;;;;;;10.29;100.00;102426.53;5059758;28;20441;-89
2022/01/07 08:40:34;;;;;;;4.40;1.50;;;;;;;10.34;100.00;102416.88;5063188;28;20485;-89
2022/01/07 08:43:02;;;;;;;5.33;1.60;;;;;;;10.47;100.00;102432.06;5079598;28;20443;-89
2022/01/07 08:45:29;;;;;;;13.30;2.60;;;;;;;10.52;100.00;102416.94;5063395;28;20512;-89
2022/01/07 08:47:59;;;;;;;5.40;1.40;;;;;;;10.67;100.00;102428.22;5068628;28;20444;-85
2022/01/07 08:50:26;;;;;;;5.73;1.37;;;;;;;10.76;100.00;102427.31;5044436;28;20449;-88
2022/01/07 08:52:56;;;;;;;10.37;1.50;;;;;;;10.87;100.00;102440.75;5059555;28;20495;-88
2022/01/07 08:55:24;;;;;;;16.20;2.77;;;;;;;10.89;100.00;102430.53;5078857;28;20479;-88
2022/01/07 08:57:53;;;;;;;11.43;1.80;;;;;;;11.00;100.00;102446.69;5062739;28;20497;-90
2022/01/07 09:00:24;;;;;;;7.57;1.97;;;;;;;11.12;100.00;102441.03;5077744;28;21007;-91
2022/01/07 09:02:55;;;;;;;7.37;2.13;;;;;;;11.21;100.00;102459.22;5066994;28;20533;-90
2022/01/07 09:05:24;;;;;;;9.20;1.90;;;;;;;11.25;100.00;102441.47;5058088;28;20468;-93
2022/01/07 09:08:03;;;;;;;9.30;1.90;;;;;;;11.30;100.00;102441.88;5044629;28;20445;-93
2022/01/07 09:11:01;;;;;;;8.90;2.23;;;;;;;11.40;100.00;102442.63;5045281;28;20440;-92
2022/01/07 09:14:00;;;;;;;7.83;1.87;;;;;;;11.50;100.00;102453.53;5060445;28;20453;-94
2022/01/07 09:20:38;;;;;;;6.30;1.97;;;;;;;11.63;100.00;102443.88;5062328;28;20437;-90
2022/01/07 09:23:15;;;;;;;4.53;1.50;;;;;;;11.62;100.00;102444.88;5026779;28;20454;-91
2022/01/07 09:26:15;;;;;;;9.90;1.70;;;;;;;11.66;100.00;102446.28;5023407;28;20503;-91
2022/01/07 09:32:44;;;;;;;7.20;1.77;;;;;;;11.85;100.00;102455.38;4953299;28;20836;-89
2022/01/07 09:35:51;;;;;;;9.10;1.50;;;;;;;11.81;100.00;102445.75;4937873;29;20843;-90
2022/01/07 09:38:49;;;;;;;5.03;1.83;;;;;;;11.92;100.00;102456.47;4926982;28;20446;-90
2022/01/07 09:50:06;;;;;;;8.37;1.50;;;;;;;12.31;99.57;102479.66;4976430;28;20469;-90
2022/01/07 09:52:51;;;;;;;5.73;1.60;;;;;;;12.38;98.60;102469.75;4956163;28;20459;-90
2022/01/07 09:55:33;;;;;;;3.83;1.77;;;;;;;12.54;96.75;102488.16;4929294;29;20562;-89
2022/01/07 09:58:07;;;;;;;4.80;1.77;;;;;;;12.54;96.20;102468.09;4959563;28;20534;-91
2022/01/07 10:31:39;;;;;;;3.07;1.77;;;;;;;13.67;88.61;102517.84;5105183;28;20549;-96
2022/01/07 11:09:09;;;;;;;2.93;1.60;;;;;;;14.70;82.36;102452.03;5980222;23;20419;-93
2022/01/07 11:20:05;;;;;;;4.70;1.30;;;;;;;15.14;79.14;102468.81;5532895;23;20531;-94
2022/01/07 11:22:38;;;;;;;2.63;1.10;;;;;;;15.21;79.38;102476.16;4939824;29;20543;-96
2022/01/07 11:25:38;;;;;;;3.60;1.23;;;;;;;15.31;79.00;102480.59;4937036;29;20518;-94
2022/01/07 11:28:26;;;;;;;4.97;1.60;;;;;;;15.28;79.20;102470.78;4970436;28;20477;-94
2022/01/07 11:38:58;;;;;;;3.90;1.20;;;;;;;15.64;77.37;102470.22;4900314;29;20452;-95
2022/01/07 11:42:06;;;;;;;1.93;0.80;;;;;;;15.73;77.09;102471.88;4869568;29;20968;-95
2022/01/07 11:44:46;;;;;;;2.30;0.97;;;;;;;15.76;77.01;102468.75;4886574;29;20541;-93
2022/01/07 11:47:57;;;;;;;5.60;1.20;;;;;;;15.82;76.28;102457.81;4890351;29;20940;-94
2022/01/07 11:50:35;;;;;;;4.10;1.00;;;;;;;15.95;76.86;102453.56;4886697;29;20453;-93
2022/01/07 12:28:18;;;;;;;4.20;1.00;;;;;;;17.24;69.58;102418.81;4952404;29;20876;-92
2022/01/07 12:30:47;;;;;;;1.87;0.77;;;;;;;17.29;69.58;102395.25;4920360;29;20543;-90
2022/01/07 12:33:17;;;;;;;1.87;0.90;;;;;;;17.23;67.38;102388.59;4905029;29;20461;-90
2022/01/07 12:35:46;;;;;;;1.90;1.33;;;;;;;17.17;67.41;102394.91;4915542;28;20973;-89
2022/01/07 12:38:51;;;;;;;3.43;1.30;;;;;;;17.34;68.69;102409.31;4939202;29;20801;-90
2022/01/07 12:48:53;;;;;;;8.10;3.17;;;;;;;17.51;67.24;102389.50;4956175;29;20813;-91
2022/01/07 12:51:21;;;;;;;3.80;1.93;;;;;;;17.52;66.93;102387.56;4923808;29;20463;-89
2022/01/07 12:53:56;;;;;;;5.00;2.07;;;;;;;17.60;68.50;102376.38;4922867;29;20466;-89
2022/01/07 12:56:28;;;;;;;5.17;2.17;;;;;;;17.85;70.70;102376.84;4918315;29;20998;-90
2022/01/07 12:58:58;;;;;;;7.67;2.23;;;;;;;17.91;70.74;102379.63;4923593;29;20444;-92
2022/01/07 13:01:31;;;;;;;4.80;1.60;;;;;;;17.88;68.85;102382.81;4920767;29;21054;-90
2022/01/07 13:04:23;;;;;;;4.00;1.40;;;;;;;17.83;69.23;102381.72;4936273;29;20459;-95
2022/01/07 13:06:57;;;;;;;1.67;1.07;;;;;;;17.98;69.84;102370.53;4935420;29;20456;-86
2022/01/07 13:09:29;;;;;;;4.40;1.90;;;;;;;18.07;69.79;102380.38;4904859;29;20954;-89
2022/01/07 13:11:59;;;;;;;6.57;2.43;;;;;;;18.09;69.83;102381.88;4921932;29;20535;-89
2022/01/07 13:14:29;;;;;;;7.40;3.67;;;;;;;18.04;69.02;102381.66;4938361;29;20821;-88
2022/01/07 13:17:00;;;;;;;3.37;1.57;;;;;;;18.05;69.26;102379.72;4940169;28;20490;-84
2022/01/07 13:19:29;;;;;;;11.80;2.60;;;;;;;18.03;68.82;102381.84;4940620;29;20459;-91
2022/01/07 13:21:58;;;;;;;3.63;1.83;;;;;;;18.05;70.08;102386.13;4934453;29;20448;-89
2022/01/07 13:24:29;;;;;;;4.10;1.70;;;;;;;17.98;69.66;102378.81;4933471;29;20483;-90
2022/01/07 13:27:05;;;;;;;1.73;1.10;;;;;;;18.01;69.73;102378.44;4915372;29;20451;-90
2022/01/07 13:29:49;;;;;;;3.43;1.20;;;;;;;18.00;69.87;102368.41;4961338;28;20493;-91
2022/01/07 13:32:31;;;;;;;5.20;1.40;;;;;;;18.04;69.71;102372.50;4934821;28;20458;-92
2022/01/07 13:35:08;;;;;;;5.80;1.97;;;;;;;18.02;69.44;102358.00;4926893;28;21049;-91
2022/01/07 13:37:36;;;;;;;8.73;2.40;;;;;;;17.99;70.51;102352.88;4925155;28;21009;-91
2022/01/07 13:40:08;;;;;;;9.63;2.90;;;;;;;17.90;72.37;102339.19;4941597;28;20514;-90
2022/01/07 13:43:15;;;;;;;10.93;2.57;;;;;;;17.95;74.06;102344.13;4942436;28;20470;-91
2022/01/07 13:45:50;;;;;;;4.10;2.60;;;;;;;17.99;74.33;102341.81;4972979;28;20530;-91
2022/01/07 13:48:18;;;;;;;8.20;2.50;;;;;;;17.97;73.53;102342.00;4926467;28;20534;-91
2022/01/07 13:50:55;;;;;;;8.77;2.80;;;;;;;17.89;74.87;102331.97;4930007;28;20531;-90
2022/01/07 13:53:28;;;;;;;6.27;2.50;;;;;;;17.84;74.75;102311.50;4941716;28;20824;-90
2022/01/07 13:56:10;;;;;;;10.57;4.10;;;;;;;17.95;75.49;102322.84;4938992;28;20573;-91
2022/01/07 14:17:30;;;;;;;7.20;2.23;;;;;;;17.83;74.63;102324.47;4973319;28;20559;-90
2022/01/07 14:23:55;;;;;;;6.63;2.73;;;;;;;17.67;75.66;102313.75;4970144;28;20995;-93
2022/01/07 14:26:32;;;;;;;7.33;2.17;;;;;;;17.68;75.88;102328.41;4923922;28;20978;-90